sensor_id;sensor_type;location;lat;lon;timestamp;P1;durP1;ratioP1;P2;durP2;ratioP2
55216;SDS011;41086;46.736;15.666;2023-04-25T00:01:50;2.13;;;1.50;;
55216;SDS011;41086;46.736;15.666;2023-04-25T00:04:17;3.55;;;1.52;;
55216;SDS011;41086;46.736;15.666;2023-04-25T00:06:44;2.03;;;1.45;;
55216;SDS011;41086;46.736;15.666;2023-04-25T00:09:11;5.00;;;1.55;;
55216;SDS011;41086;46.736;15.666;2023-04-25T00:11:37;4.78;;;1.92;;
55216;SDS011;41086;46.736;15.666;2023-04-25T00:14:04;2.05;;;1.42;;
55216;SDS011;41086;46.736;15.666;2023-04-25T00:16:31;4.63;;;1.50;;
55216;SDS011;41086;46.736;15.666;2023-04-25T00:19:00;4.35;;;1.80;;
55216;SDS011;41086;46.736;15.666;2023-04-25T00:21:27;2.92;;;1.73;;
55216;SDS011;41086;46.736;15.666;2023-04-25T00:23:55;2.58;;;1.55;;
55216;SDS011;41086;46.736;15.666;2023-04-25T00:28:48;6.45;;;1.75;;
55216;SDS011;41086;46.736;15.666;2023-04-25T00:31:14;5.63;;;1.80;;
55216;SDS011;41086;46.736;15.666;2023-04-25T00:33:41;5.93;;;2.30;;
55216;SDS011;41086;46.736;15.666;2023-04-25T00:36:08;11.25;;;2.20;;
55216;SDS011;41086;46.736;15.666;2023-04-25T00:38:35;6.13;;;2.47;;
55216;SDS011;41086;46.736;15.666;2023-04-25T00:41:02;9.75;;;1.80;;
55216;SDS011;41086;46.736;15.666;2023-04-25T00:43:28;13.68;;;2.22;;
55216;SDS011;41086;46.736;15.666;2023-04-25T00:45:56;6.95;;;2.58;;
55216;SDS011;41086;46.736;15.666;2023-04-25T00:50:54;5.85;;;2.00;;
55216;SDS011;41086;46.736;15.666;2023-04-25T00:53:21;3.85;;;1.90;;
55216;SDS011;41086;46.736;15.666;2023-04-25T00:55:48;6.75;;;2.33;;
55216;SDS011;41086;46.736;15.666;2023-04-25T00:58:17;6.90;;;2.13;;
55216;SDS011;41086;46.736;15.666;2023-04-25T01:00:44;6.70;;;2.00;;
55216;SDS011;41086;46.736;15.666;2023-04-25T01:03:12;5.03;;;1.50;;
55216;SDS011;41086;46.736;15.666;2023-04-25T01:05:40;3.30;;;2.13;;
55216;SDS011;41086;46.736;15.666;2023-04-25T01:08:07;9.05;;;2.17;;
55216;SDS011;41086;46.736;15.666;2023-04-25T01:10:34;7.32;;;2.65;;
55216;SDS011;41086;46.736;15.666;2023-04-25T01:13:00;4.07;;;1.98;;
55216;SDS011;41086;46.736;15.666;2023-04-25T01:15:27;4.68;;;1.95;;
55216;SDS011;41086;46.736;15.666;2023-04-25T01:17:53;5.15;;;2.00;;
55216;SDS011;41086;46.736;15.666;2023-04-25T01:20:22;10.90;;;2.90;;
55216;SDS011;41086;46.736;15.666;2023-04-25T01:22:50;8.85;;;2.45;;
55216;SDS011;41086;46.736;15.666;2023-04-25T01:25:16;6.95;;;2.17;;
55216;SDS011;41086;46.736;15.666;2023-04-25T01:27:43;4.90;;;1.95;;
55216;SDS011;41086;46.736;15.666;2023-04-25T01:30:10;6.13;;;2.00;;
55216;SDS011;41086;46.736;15.666;2023-04-25T01:32:39;7.53;;;2.30;;
55216;SDS011;41086;46.736;15.666;2023-04-25T01:37:39;4.90;;;2.08;;
55216;SDS011;41086;46.736;15.666;2023-04-25T01:40:08;3.97;;;1.88;;
55216;SDS011;41086;46.736;15.666;2023-04-25T01:42:35;5.07;;;2.10;;
55216;SDS011;41086;46.736;15.666;2023-04-25T01:45:02;4.18;;;1.63;;
55216;SDS011;41086;46.736;15.666;2023-04-25T01:49:58;3.90;;;2.55;;
55216;SDS011;41086;46.736;15.666;2023-04-25T01:52:24;5.78;;;2.10;;
55216;SDS011;41086;46.736;15.666;2023-04-25T01:54:51;7.68;;;2.05;;
55216;SDS011;41086;46.736;15.666;2023-04-25T01:57:18;3.80;;;2.00;;
55216;SDS011;41086;46.736;15.666;2023-04-25T02:02:22;6.32;;;3.20;;
55216;SDS011;41086;46.736;15.666;2023-04-25T02:04:49;10.52;;;7.78;;
55216;SDS011;41086;46.736;15.666;2023-04-25T02:07:16;8.77;;;4.53;;
55216;SDS011;41086;46.736;15.666;2023-04-25T02:09:48;5.60;;;2.85;;
55216;SDS011;41086;46.736;15.666;2023-04-25T02:12:16;5.60;;;3.67;;
55216;SDS011;41086;46.736;15.666;2023-04-25T02:15:03;11.27;;;4.22;;
55216;SDS011;41086;46.736;15.666;2023-04-25T02:17:40;7.05;;;3.17;;
55216;SDS011;41086;46.736;15.666;2023-04-25T02:20:07;4.30;;;2.45;;
55216;SDS011;41086;46.736;15.666;2023-04-25T02:22:34;3.88;;;2.50;;
55216;SDS011;41086;46.736;15.666;2023-04-25T02:25:05;5.43;;;2.40;;
55216;SDS011;41086;46.736;15.666;2023-04-25T02:27:32;4.57;;;2.70;;
55216;SDS011;41086;46.736;15.666;2023-04-25T02:29:58;9.68;;;2.95;;
55216;SDS011;41086;46.736;15.666;2023-04-25T02:32:25;4.80;;;3.30;;
55216;SDS011;41086;46.736;15.666;2023-04-25T02:34:52;11.75;;;3.58;;
55216;SDS011;41086;46.736;15.666;2023-04-25T02:37:18;8.52;;;4.25;;
55216;SDS011;41086;46.736;15.666;2023-04-25T02:39:45;7.57;;;3.70;;
55216;SDS011;41086;46.736;15.666;2023-04-25T02:42:12;7.45;;;3.88;;
55216;SDS011;41086;46.736;15.666;2023-04-25T02:44:38;13.52;;;3.75;;
55216;SDS011;41086;46.736;15.666;2023-04-25T02:47:05;39.95;;;6.57;;
55216;SDS011;41086;46.736;15.666;2023-04-25T02:49:32;31.70;;;6.32;;
55216;SDS011;41086;46.736;15.666;2023-04-25T02:51:58;256.05;;;12.73;;
55216;SDS011;41086;46.736;15.666;2023-04-25T02:54:25;32.78;;;5.65;;
55216;SDS011;41086;46.736;15.666;2023-04-25T02:56:55;12.13;;;4.30;;
55216;SDS011;41086;46.736;15.666;2023-04-25T02:59:26;60.25;;;6.95;;
55216;SDS011;41086;46.736;15.666;2023-04-25T03:01:52;61.53;;;6.05;;
55216;SDS011;41086;46.736;15.666;2023-04-25T03:04:19;96.95;;;6.90;;
55216;SDS011;41086;46.736;15.666;2023-04-25T03:06:47;52.20;;;6.57;;
55216;SDS011;41086;46.736;15.666;2023-04-25T03:09:13;63.47;;;5.75;;
55216;SDS011;41086;46.736;15.666;2023-04-25T03:11:40;42.17;;;4.72;;
55216;SDS011;41086;46.736;15.666;2023-04-25T03:14:07;92.78;;;7.15;;
55216;SDS011;41086;46.736;15.666;2023-04-25T03:16:34;45.30;;;5.15;;
55216;SDS011;41086;46.736;15.666;2023-04-25T03:19:01;101.28;;;7.93;;
55216;SDS011;41086;46.736;15.666;2023-04-25T03:21:28;69.05;;;6.00;;
55216;SDS011;41086;46.736;15.666;2023-04-25T03:23:57;72.53;;;5.53;;
55216;SDS011;41086;46.736;15.666;2023-04-25T03:26:23;56.80;;;7.72;;
55216;SDS011;41086;46.736;15.666;2023-04-25T03:28:50;100.00;;;7.75;;
55216;SDS011;41086;46.736;15.666;2023-04-25T03:33:44;70.38;;;7.55;;
55216;SDS011;41086;46.736;15.666;2023-04-25T03:36:10;43.83;;;5.95;;
55216;SDS011;41086;46.736;15.666;2023-04-25T03:38:38;68.63;;;7.07;;
55216;SDS011;41086;46.736;15.666;2023-04-25T03:41:05;41.53;;;8.50;;
55216;SDS011;41086;46.736;15.666;2023-04-25T03:43:41;43.78;;;11.77;;
55216;SDS011;41086;46.736;15.666;2023-04-25T03:46:11;153.20;;;15.13;;
55216;SDS011;41086;46.736;15.666;2023-04-25T03:48:39;73.70;;;11.88;;
55216;SDS011;41086;46.736;15.666;2023-04-25T03:51:08;33.78;;;7.35;;
55216;SDS011;41086;46.736;15.666;2023-04-25T03:53:37;101.43;;;8.45;;
55216;SDS011;41086;46.736;15.666;2023-04-25T03:56:22;75.63;;;13.82;;
55216;SDS011;41086;46.736;15.666;2023-04-25T03:58:57;24.23;;;7.22;;
55216;SDS011;41086;46.736;15.666;2023-04-25T04:01:25;21.52;;;7.45;;
55216;SDS011;41086;46.736;15.666;2023-04-25T04:03:52;87.45;;;12.10;;
55216;SDS011;41086;46.736;15.666;2023-04-25T04:06:20;61.67;;;10.60;;
55216;SDS011;41086;46.736;15.666;2023-04-25T04:08:52;48.65;;;9.50;;
55216;SDS011;41086;46.736;15.666;2023-04-25T04:11:20;30.15;;;7.05;;
55216;SDS011;41086;46.736;15.666;2023-04-25T04:13:47;18.05;;;7.07;;
55216;SDS011;41086;46.736;15.666;2023-04-25T04:18:41;8.43;;;4.05;;
55216;SDS011;41086;46.736;15.666;2023-04-25T04:21:08;15.48;;;5.90;;
55216;SDS011;41086;46.736;15.666;2023-04-25T04:23:38;7.30;;;4.75;;
55216;SDS011;41086;46.736;15.666;2023-04-25T04:26:07;10.57;;;6.25;;
55216;SDS011;41086;46.736;15.666;2023-04-25T04:29:13;9.98;;;6.53;;
55216;SDS011;41086;46.736;15.666;2023-04-25T04:32:05;388.85;;;26.08;;
55216;SDS011;41086;46.736;15.666;2023-04-25T04:34:35;260.38;;;23.73;;
55216;SDS011;41086;46.736;15.666;2023-04-25T04:37:02;137.40;;;14.07;;
55216;SDS011;41086;46.736;15.666;2023-04-25T04:39:29;147.35;;;16.15;;
55216;SDS011;41086;46.736;15.666;2023-04-25T04:42:07;17.27;;;6.93;;
55216;SDS011;41086;46.736;15.666;2023-04-25T04:45:03;67.63;;;10.85;;
55216;SDS011;41086;46.736;15.666;2023-04-25T04:47:53;241.15;;;21.33;;
55216;SDS011;41086;46.736;15.666;2023-04-25T04:50:51;75.50;;;9.82;;
55216;SDS011;41086;46.736;15.666;2023-04-25T04:53:24;22.13;;;9.45;;
55216;SDS011;41086;46.736;15.666;2023-04-25T04:58:58;187.05;;;16.25;;
55216;SDS011;41086;46.736;15.666;2023-04-25T05:01:33;8.95;;;5.68;;
55216;SDS011;41086;46.736;15.666;2023-04-25T05:04:26;7.75;;;5.00;;
55216;SDS011;41086;46.736;15.666;2023-04-25T05:07:16;10.38;;;5.95;;
55216;SDS011;41086;46.736;15.666;2023-04-25T05:10:09;10.18;;;6.78;;
55216;SDS011;41086;46.736;15.666;2023-04-25T05:12:36;9.20;;;6.32;;
55216;SDS011;41086;46.736;15.666;2023-04-25T05:15:09;10.82;;;6.60;;
55216;SDS011;41086;46.736;15.666;2023-04-25T05:17:54;12.35;;;6.15;;
55216;SDS011;41086;46.736;15.666;2023-04-25T05:20:44;8.45;;;5.82;;
55216;SDS011;41086;46.736;15.666;2023-04-25T05:23:34;8.15;;;4.85;;
55216;SDS011;41086;46.736;15.666;2023-04-25T05:26:19;7.53;;;4.30;;
55216;SDS011;41086;46.736;15.666;2023-04-25T05:28:52;6.35;;;4.25;;
55216;SDS011;41086;46.736;15.666;2023-04-25T05:31:35;4.28;;;2.85;;
55216;SDS011;41086;46.736;15.666;2023-04-25T05:34:11;4.57;;;3.63;;
55216;SDS011;41086;46.736;15.666;2023-04-25T05:36:50;6.88;;;3.80;;
55216;SDS011;41086;46.736;15.666;2023-04-25T05:39:18;4.65;;;4.22;;
55216;SDS011;41086;46.736;15.666;2023-04-25T05:42:02;7.20;;;3.40;;
55216;SDS011;41086;46.736;15.666;2023-04-25T05:44:48;5.60;;;3.58;;
55216;SDS011;41086;46.736;15.666;2023-04-25T05:47:35;5.95;;;3.85;;
55216;SDS011;41086;46.736;15.666;2023-04-25T05:50:11;5.80;;;3.65;;
55216;SDS011;41086;46.736;15.666;2023-04-25T05:52:56;5.13;;;3.40;;
55216;SDS011;41086;46.736;15.666;2023-04-25T05:55:37;4.85;;;2.83;;
55216;SDS011;41086;46.736;15.666;2023-04-25T05:58:19;6.50;;;3.20;;
55216;SDS011;41086;46.736;15.666;2023-04-25T06:00:46;5.22;;;2.90;;
55216;SDS011;41086;46.736;15.666;2023-04-25T06:03:13;9.15;;;3.20;;
55216;SDS011;41086;46.736;15.666;2023-04-25T06:05:46;3.67;;;2.22;;
55216;SDS011;41086;46.736;15.666;2023-04-25T06:08:12;5.00;;;1.92;;
55216;SDS011;41086;46.736;15.666;2023-04-25T06:10:39;5.63;;;2.42;;
55216;SDS011;41086;46.736;15.666;2023-04-25T06:13:06;3.92;;;2.30;;
55216;SDS011;41086;46.736;15.666;2023-04-25T06:15:34;4.43;;;1.85;;
55216;SDS011;41086;46.736;15.666;2023-04-25T06:18:01;2.33;;;1.63;;
55216;SDS011;41086;46.736;15.666;2023-04-25T06:20:28;4.05;;;2.30;;
55216;SDS011;41086;46.736;15.666;2023-04-25T06:22:57;3.47;;;2.15;;
55216;SDS011;41086;46.736;15.666;2023-04-25T06:25:33;5.28;;;2.53;;
55216;SDS011;41086;46.736;15.666;2023-04-25T06:28:01;4.05;;;2.45;;
55216;SDS011;41086;46.736;15.666;2023-04-25T06:30:28;5.50;;;2.60;;
55216;SDS011;41086;46.736;15.666;2023-04-25T06:33:00;3.92;;;2.03;;
55216;SDS011;41086;46.736;15.666;2023-04-25T06:35:28;6.00;;;2.38;;
55216;SDS011;41086;46.736;15.666;2023-04-25T06:37:54;5.38;;;2.50;;
55216;SDS011;41086;46.736;15.666;2023-04-25T06:40:22;3.45;;;1.90;;
55216;SDS011;41086;46.736;15.666;2023-04-25T06:42:49;3.10;;;1.92;;
55216;SDS011;41086;46.736;15.666;2023-04-25T06:45:31;3.58;;;2.20;;
55216;SDS011;41086;46.736;15.666;2023-04-25T06:47:58;8.07;;;2.10;;
55216;SDS011;41086;46.736;15.666;2023-04-25T06:50:25;3.33;;;1.98;;
55216;SDS011;41086;46.736;15.666;2023-04-25T06:52:52;5.38;;;1.90;;
55216;SDS011;41086;46.736;15.666;2023-04-25T06:55:19;6.53;;;1.88;;
55216;SDS011;41086;46.736;15.666;2023-04-25T06:58:21;3.20;;;1.77;;
55216;SDS011;41086;46.736;15.666;2023-04-25T07:00:54;3.83;;;1.50;;
55216;SDS011;41086;46.736;15.666;2023-04-25T07:03:23;7.25;;;1.63;;
55216;SDS011;41086;46.736;15.666;2023-04-25T07:05:55;2.90;;;1.60;;
55216;SDS011;41086;46.736;15.666;2023-04-25T07:08:23;5.88;;;1.67;;
55216;SDS011;41086;46.736;15.666;2023-04-25T07:10:50;5.28;;;1.75;;
55216;SDS011;41086;46.736;15.666;2023-04-25T07:13:16;4.82;;;1.90;;
55216;SDS011;41086;46.736;15.666;2023-04-25T07:15:43;4.57;;;1.80;;
55216;SDS011;41086;46.736;15.666;2023-04-25T07:18:10;6.38;;;1.63;;
55216;SDS011;41086;46.736;15.666;2023-04-25T07:20:37;6.05;;;2.13;;
55216;SDS011;41086;46.736;15.666;2023-04-25T07:23:04;5.65;;;1.75;;
55216;SDS011;41086;46.736;15.666;2023-04-25T07:25:30;4.97;;;1.63;;
55216;SDS011;41086;46.736;15.666;2023-04-25T07:27:57;4.57;;;1.70;;
55216;SDS011;41086;46.736;15.666;2023-04-25T07:30:25;3.78;;;1.63;;
55216;SDS011;41086;46.736;15.666;2023-04-25T07:32:53;5.85;;;2.10;;
55216;SDS011;41086;46.736;15.666;2023-04-25T07:35:20;3.67;;;1.60;;
55216;SDS011;41086;46.736;15.666;2023-04-25T07:40:17;2.95;;;1.45;;
55216;SDS011;41086;46.736;15.666;2023-04-25T07:42:47;2.88;;;1.63;;
55216;SDS011;41086;46.736;15.666;2023-04-25T07:45:18;3.83;;;1.70;;
55216;SDS011;41086;46.736;15.666;2023-04-25T07:47:45;7.30;;;1.45;;
55216;SDS011;41086;46.736;15.666;2023-04-25T07:50:12;2.97;;;1.55;;
55216;SDS011;41086;46.736;15.666;2023-04-25T07:52:39;6.90;;;1.90;;
55216;SDS011;41086;46.736;15.666;2023-04-25T07:55:15;5.47;;;1.75;;
55216;SDS011;41086;46.736;15.666;2023-04-25T07:57:57;3.92;;;1.70;;
55216;SDS011;41086;46.736;15.666;2023-04-25T08:00:26;3.08;;;1.38;;
55216;SDS011;41086;46.736;15.666;2023-04-25T08:03:09;4.30;;;1.60;;
55216;SDS011;41086;46.736;15.666;2023-04-25T08:05:36;4.07;;;1.80;;
55216;SDS011;41086;46.736;15.666;2023-04-25T08:08:05;3.70;;;1.50;;
55216;SDS011;41086;46.736;15.666;2023-04-25T08:10:33;4.95;;;1.80;;
55216;SDS011;41086;46.736;15.666;2023-04-25T08:12:59;4.18;;;1.42;;
55216;SDS011;41086;46.736;15.666;2023-04-25T08:15:26;2.38;;;1.25;;
55216;SDS011;41086;46.736;15.666;2023-04-25T08:17:53;2.25;;;1.00;;
55216;SDS011;41086;46.736;15.666;2023-04-25T08:20:20;1.50;;;0.90;;
55216;SDS011;41086;46.736;15.666;2023-04-25T08:22:48;1.58;;;0.90;;
55216;SDS011;41086;46.736;15.666;2023-04-25T08:25:38;3.17;;;1.35;;
55216;SDS011;41086;46.736;15.666;2023-04-25T08:28:07;2.08;;;1.10;;
55216;SDS011;41086;46.736;15.666;2023-04-25T08:30:33;2.92;;;0.98;;
55216;SDS011;41086;46.736;15.666;2023-04-25T08:35:45;1.00;;;0.60;;
55216;SDS011;41086;46.736;15.666;2023-04-25T08:38:13;1.17;;;0.70;;
55216;SDS011;41086;46.736;15.666;2023-04-25T08:43:13;1.92;;;1.00;;
55216;SDS011;41086;46.736;15.666;2023-04-25T08:45:41;2.13;;;1.02;;
55216;SDS011;41086;46.736;15.666;2023-04-25T08:48:13;3.03;;;1.50;;
55216;SDS011;41086;46.736;15.666;2023-04-25T08:50:50;1.40;;;0.82;;
55216;SDS011;41086;46.736;15.666;2023-04-25T08:53:21;1.58;;;0.80;;
55216;SDS011;41086;46.736;15.666;2023-04-25T08:55:49;2.90;;;0.85;;
55216;SDS011;41086;46.736;15.666;2023-04-25T09:00:42;1.30;;;0.80;;
55216;SDS011;41086;46.736;15.666;2023-04-25T09:03:09;1.55;;;0.90;;
55216;SDS011;41086;46.736;15.666;2023-04-25T09:05:37;1.88;;;0.82;;
55216;SDS011;41086;46.736;15.666;2023-04-25T09:08:04;3.28;;;1.00;;
55216;SDS011;41086;46.736;15.666;2023-04-25T09:10:31;1.25;;;0.90;;
55216;SDS011;41086;46.736;15.666;2023-04-25T09:13:02;0.85;;;0.68;;
55216;SDS011;41086;46.736;15.666;2023-04-25T09:15:32;1.75;;;0.90;;
55216;SDS011;41086;46.736;15.666;2023-04-25T09:17:59;4.60;;;0.98;;
55216;SDS011;41086;46.736;15.666;2023-04-25T09:20:34;2.05;;;0.88;;
55216;SDS011;41086;46.736;15.666;2023-04-25T09:23:11;6.00;;;0.87;;
55216;SDS011;41086;46.736;15.666;2023-04-25T09:25:38;2.35;;;1.00;;
55216;SDS011;41086;46.736;15.666;2023-04-25T09:28:07;2.92;;;1.00;;
55216;SDS011;41086;46.736;15.666;2023-04-25T09:30:34;1.45;;;0.70;;
55216;SDS011;41086;46.736;15.666;2023-04-25T09:33:23;2.03;;;1.10;;
55216;SDS011;41086;46.736;15.666;2023-04-25T09:35:54;1.92;;;0.90;;
55216;SDS011;41086;46.736;15.666;2023-04-25T09:38:40;1.33;;;0.75;;
55216;SDS011;41086;46.736;15.666;2023-04-25T09:41:15;1.50;;;0.75;;
55216;SDS011;41086;46.736;15.666;2023-04-25T09:43:48;1.42;;;1.00;;
55216;SDS011;41086;46.736;15.666;2023-04-25T09:46:15;2.05;;;0.85;;
55216;SDS011;41086;46.736;15.666;2023-04-25T09:48:49;2.45;;;0.70;;
55216;SDS011;41086;46.736;15.666;2023-04-25T09:51:25;2.05;;;0.93;;
55216;SDS011;41086;46.736;15.666;2023-04-25T09:53:52;2.22;;;1.00;;
55216;SDS011;41086;46.736;15.666;2023-04-25T09:56:38;2.13;;;0.80;;
55216;SDS011;41086;46.736;15.666;2023-04-25T09:59:06;1.95;;;0.98;;
55216;SDS011;41086;46.736;15.666;2023-04-25T10:01:35;2.10;;;1.10;;
55216;SDS011;41086;46.736;15.666;2023-04-25T10:04:11;1.35;;;0.82;;
55216;SDS011;41086;46.736;15.666;2023-04-25T10:06:46;2.05;;;0.77;;
55216;SDS011;41086;46.736;15.666;2023-04-25T10:09:16;1.65;;;0.70;;
55216;SDS011;41086;46.736;15.666;2023-04-25T10:11:46;2.83;;;0.80;;
55216;SDS011;41086;46.736;15.666;2023-04-25T10:14:14;4.50;;;1.25;;
55216;SDS011;41086;46.736;15.666;2023-04-25T10:16:41;2.00;;;0.68;;
55216;SDS011;41086;46.736;15.666;2023-04-25T10:19:08;0.98;;;0.65;;
55216;SDS011;41086;46.736;15.666;2023-04-25T10:21:34;0.93;;;0.68;;
55216;SDS011;41086;46.736;15.666;2023-04-25T10:24:03;1.42;;;0.75;;
55216;SDS011;41086;46.736;15.666;2023-04-25T10:26:29;0.90;;;0.47;;
55216;SDS011;41086;46.736;15.666;2023-04-25T10:28:57;1.48;;;0.82;;
55216;SDS011;41086;46.736;15.666;2023-04-25T10:31:24;0.95;;;0.60;;
55216;SDS011;41086;46.736;15.666;2023-04-25T10:36:18;1.40;;;0.70;;
55216;SDS011;41086;46.736;15.666;2023-04-25T10:38:45;1.83;;;0.80;;
55216;SDS011;41086;46.736;15.666;2023-04-25T10:41:13;0.88;;;0.77;;
55216;SDS011;41086;46.736;15.666;2023-04-25T10:43:41;2.08;;;1.10;;
55216;SDS011;41086;46.736;15.666;2023-04-25T10:46:29;1.75;;;0.80;;
55216;SDS011;41086;46.736;15.666;2023-04-25T10:48:59;2.40;;;1.17;;
55216;SDS011;41086;46.736;15.666;2023-04-25T10:51:27;1.45;;;0.75;;
55216;SDS011;41086;46.736;15.666;2023-04-25T10:54:06;3.15;;;1.60;;
55216;SDS011;41086;46.736;15.666;2023-04-25T10:59:03;2.75;;;1.00;;
55216;SDS011;41086;46.736;15.666;2023-04-25T11:01:35;1.48;;;0.50;;
55216;SDS011;41086;46.736;15.666;2023-04-25T11:04:02;2.85;;;1.13;;
55216;SDS011;41086;46.736;15.666;2023-04-25T11:08:55;2.30;;;1.10;;
55216;SDS011;41086;46.736;15.666;2023-04-25T11:11:22;2.28;;;1.02;;
55216;SDS011;41086;46.736;15.666;2023-04-25T11:13:49;1.00;;;0.70;;
55216;SDS011;41086;46.736;15.666;2023-04-25T11:16:16;4.45;;;1.10;;
55216;SDS011;41086;46.736;15.666;2023-04-25T11:18:53;2.00;;;0.88;;
55216;SDS011;41086;46.736;15.666;2023-04-25T11:21:19;2.25;;;0.90;;
55216;SDS011;41086;46.736;15.666;2023-04-25T11:23:46;1.38;;;0.60;;
55216;SDS011;41086;46.736;15.666;2023-04-25T11:26:14;1.73;;;1.02;;
55216;SDS011;41086;46.736;15.666;2023-04-25T11:28:44;5.43;;;1.27;;
55216;SDS011;41086;46.736;15.666;2023-04-25T11:31:11;0.90;;;0.80;;
55216;SDS011;41086;46.736;15.666;2023-04-25T11:33:39;1.27;;;0.77;;
55216;SDS011;41086;46.736;15.666;2023-04-25T11:36:07;1.50;;;0.90;;
55216;SDS011;41086;46.736;15.666;2023-04-25T11:38:33;2.10;;;1.00;;
55216;SDS011;41086;46.736;15.666;2023-04-25T11:43:27;1.95;;;0.60;;
55216;SDS011;41086;46.736;15.666;2023-04-25T11:45:53;1.58;;;0.70;;
55216;SDS011;41086;46.736;15.666;2023-04-25T11:48:20;3.90;;;0.98;;
55216;SDS011;41086;46.736;15.666;2023-04-25T11:50:51;1.92;;;0.68;;
55216;SDS011;41086;46.736;15.666;2023-04-25T11:53:19;2.38;;;1.25;;
55216;SDS011;41086;46.736;15.666;2023-04-25T11:58:13;1.20;;;0.70;;
55216;SDS011;41086;46.736;15.666;2023-04-25T12:00:41;3.33;;;1.25;;
55216;SDS011;41086;46.736;15.666;2023-04-25T12:03:17;2.63;;;1.42;;
55216;SDS011;41086;46.736;15.666;2023-04-25T12:05:44;1.35;;;0.70;;
55216;SDS011;41086;46.736;15.666;2023-04-25T12:08:12;1.77;;;0.90;;
55216;SDS011;41086;46.736;15.666;2023-04-25T12:10:39;5.15;;;1.20;;
55216;SDS011;41086;46.736;15.666;2023-04-25T12:13:22;2.53;;;1.25;;
55216;SDS011;41086;46.736;15.666;2023-04-25T12:15:49;1.70;;;0.70;;
55216;SDS011;41086;46.736;15.666;2023-04-25T12:18:20;2.67;;;1.10;;
55216;SDS011;41086;46.736;15.666;2023-04-25T12:20:47;5.03;;;1.55;;
55216;SDS011;41086;46.736;15.666;2023-04-25T12:23:14;1.65;;;0.73;;
55216;SDS011;41086;46.736;15.666;2023-04-25T12:25:41;1.27;;;0.73;;
55216;SDS011;41086;46.736;15.666;2023-04-25T12:28:16;1.42;;;0.85;;
55216;SDS011;41086;46.736;15.666;2023-04-25T12:33:42;1.55;;;0.80;;
55216;SDS011;41086;46.736;15.666;2023-04-25T12:36:10;1.92;;;0.65;;
55216;SDS011;41086;46.736;15.666;2023-04-25T12:38:39;1.23;;;0.82;;
55216;SDS011;41086;46.736;15.666;2023-04-25T12:41:06;2.17;;;1.00;;
55216;SDS011;41086;46.736;15.666;2023-04-25T12:45:59;2.38;;;0.88;;
55216;SDS011;41086;46.736;15.666;2023-04-25T12:50:53;2.65;;;0.77;;
55216;SDS011;41086;46.736;15.666;2023-04-25T12:53:20;2.03;;;0.80;;
55216;SDS011;41086;46.736;15.666;2023-04-25T12:55:47;3.90;;;1.00;;
55216;SDS011;41086;46.736;15.666;2023-04-25T12:58:14;2.60;;;1.75;;
55216;SDS011;41086;46.736;15.666;2023-04-25T13:00:41;4.38;;;1.35;;
55216;SDS011;41086;46.736;15.666;2023-04-25T13:03:08;1.80;;;1.33;;
55216;SDS011;41086;46.736;15.666;2023-04-25T13:05:36;2.10;;;0.70;;
55216;SDS011;41086;46.736;15.666;2023-04-25T13:08:02;2.80;;;0.70;;
55216;SDS011;41086;46.736;15.666;2023-04-25T13:10:29;3.92;;;0.70;;
55216;SDS011;41086;46.736;15.666;2023-04-25T13:12:56;2.92;;;0.82;;
55216;SDS011;41086;46.736;15.666;2023-04-25T13:15:22;1.77;;;0.95;;
55216;SDS011;41086;46.736;15.666;2023-04-25T13:17:49;1.95;;;0.95;;
55216;SDS011;41086;46.736;15.666;2023-04-25T13:20:16;3.10;;;1.10;;
55216;SDS011;41086;46.736;15.666;2023-04-25T13:22:45;1.48;;;0.77;;
55216;SDS011;41086;46.736;15.666;2023-04-25T13:25:12;1.17;;;0.80;;
55216;SDS011;41086;46.736;15.666;2023-04-25T13:27:38;4.53;;;1.08;;
55216;SDS011;41086;46.736;15.666;2023-04-25T13:30:06;2.55;;;1.65;;
55216;SDS011;41086;46.736;15.666;2023-04-25T13:32:34;2.97;;;0.75;;
55216;SDS011;41086;46.736;15.666;2023-04-25T13:35:03;2.40;;;1.10;;
55216;SDS011;41086;46.736;15.666;2023-04-25T13:37:33;1.95;;;0.90;;
55216;SDS011;41086;46.736;15.666;2023-04-25T13:42:27;7.40;;;1.05;;
55216;SDS011;41086;46.736;15.666;2023-04-25T13:44:54;1.60;;;0.80;;
55216;SDS011;41086;46.736;15.666;2023-04-25T13:47:21;1.88;;;0.98;;
55216;SDS011;41086;46.736;15.666;2023-04-25T13:49:48;1.88;;;0.70;;
55216;SDS011;41086;46.736;15.666;2023-04-25T13:54:42;1.58;;;0.90;;
55216;SDS011;41086;46.736;15.666;2023-04-25T13:57:08;0.75;;;0.65;;
55216;SDS011;41086;46.736;15.666;2023-04-25T13:59:35;0.85;;;0.65;;
55216;SDS011;41086;46.736;15.666;2023-04-25T14:02:02;1.23;;;0.75;;
55216;SDS011;41086;46.736;15.666;2023-04-25T14:04:29;1.98;;;0.77;;
55216;SDS011;41086;46.736;15.666;2023-04-25T14:06:56;2.67;;;0.77;;
55216;SDS011;41086;46.736;15.666;2023-04-25T14:09:23;0.63;;;0.60;;
55216;SDS011;41086;46.736;15.666;2023-04-25T14:11:51;0.70;;;0.47;;
55216;SDS011;41086;46.736;15.666;2023-04-25T14:14:21;0.93;;;0.65;;
55216;SDS011;41086;46.736;15.666;2023-04-25T14:19:14;1.48;;;0.65;;
55216;SDS011;41086;46.736;15.666;2023-04-25T14:21:41;1.17;;;0.93;;
55216;SDS011;41086;46.736;15.666;2023-04-25T14:24:09;0.45;;;0.38;;
55216;SDS011;41086;46.736;15.666;2023-04-25T14:26:35;7.07;;;0.82;;
55216;SDS011;41086;46.736;15.666;2023-04-25T14:29:03;0.90;;;0.50;;
55216;SDS011;41086;46.736;15.666;2023-04-25T14:31:30;1.40;;;0.85;;
55216;SDS011;41086;46.736;15.666;2023-04-25T14:33:57;2.10;;;1.23;;
55216;SDS011;41086;46.736;15.666;2023-04-25T14:36:25;1.88;;;0.80;;
55216;SDS011;41086;46.736;15.666;2023-04-25T14:38:52;1.02;;;0.60;;
55216;SDS011;41086;46.736;15.666;2023-04-25T14:41:19;1.65;;;1.02;;
55216;SDS011;41086;46.736;15.666;2023-04-25T14:43:45;5.35;;;0.73;;
55216;SDS011;41086;46.736;15.666;2023-04-25T14:46:12;3.88;;;0.70;;
55216;SDS011;41086;46.736;15.666;2023-04-25T14:48:39;1.25;;;0.82;;
55216;SDS011;41086;46.736;15.666;2023-04-25T14:51:06;1.63;;;0.90;;
55216;SDS011;41086;46.736;15.666;2023-04-25T14:53:32;0.63;;;0.50;;
55216;SDS011;41086;46.736;15.666;2023-04-25T14:55:59;0.30;;;0.30;;
55216;SDS011;41086;46.736;15.666;2023-04-25T14:58:25;3.65;;;1.05;;
55216;SDS011;41086;46.736;15.666;2023-04-25T15:00:52;3.17;;;0.82;;
55216;SDS011;41086;46.736;15.666;2023-04-25T15:03:19;2.50;;;0.60;;
55216;SDS011;41086;46.736;15.666;2023-04-25T15:05:46;7.03;;;1.20;;
55216;SDS011;41086;46.736;15.666;2023-04-25T15:08:12;1.85;;;0.80;;
55216;SDS011;41086;46.736;15.666;2023-04-25T15:10:39;1.17;;;0.80;;
55216;SDS011;41086;46.736;15.666;2023-04-25T15:13:05;1.45;;;0.70;;
55216;SDS011;41086;46.736;15.666;2023-04-25T15:15:32;1.40;;;0.65;;
55216;SDS011;41086;46.736;15.666;2023-04-25T15:17:59;2.20;;;1.17;;
55216;SDS011;41086;46.736;15.666;2023-04-25T15:22:54;0.95;;;0.55;;
55216;SDS011;41086;46.736;15.666;2023-04-25T15:25:20;1.60;;;0.70;;
55216;SDS011;41086;46.736;15.666;2023-04-25T15:27:47;1.48;;;0.80;;
55216;SDS011;41086;46.736;15.666;2023-04-25T15:30:15;4.00;;;0.65;;
55216;SDS011;41086;46.736;15.666;2023-04-25T15:32:45;1.70;;;0.70;;
55216;SDS011;41086;46.736;15.666;2023-04-25T15:35:13;1.73;;;0.90;;
55216;SDS011;41086;46.736;15.666;2023-04-25T15:37:40;3.38;;;0.90;;
55216;SDS011;41086;46.736;15.666;2023-04-25T15:40:08;1.63;;;1.13;;
55216;SDS011;41086;46.736;15.666;2023-04-25T15:42:35;1.58;;;0.90;;
55216;SDS011;41086;46.736;15.666;2023-04-25T15:47:29;3.80;;;1.02;;
55216;SDS011;41086;46.736;15.666;2023-04-25T15:49:55;1.10;;;0.73;;